Saint Stephen, Minnesota
Current Conditions -  °F | °C
As of 2:53 PM on Friday 19 Dec 2014 (Local Time) from KSTC Reporting Station
Haze Haze  
Wind Chill: 20°   Ceiling: 900
Heat Index: 29°   Visibility: 4mi
Dew Point: 23°   Wind: 9mph
Humidity: 78%   Direction: 140°SE
Pressure: 30.13"   Gusts: NA
Location:  45.7°N, 94.27°W
Report Text: KSTC 192053Z 14008KT 4SM HZ OVC009 M02/M05 A3013 RMK AO2 SLP228 T10171050 56014
Loading
Personal Weather Stations






























Interactive Weather Map New forecast layout! Learn more

10-Day Weather Forecast

Advertisements
Track Severe Weather on mobile